Terminal Aerodrome Forecast
Issued by NWS

Current Version | Previous Version | Text Only | Print | Product List | Glossary On
Versions: 1 2 3 4 5 6 7 8 9 10 11 12 13
630
FTUS45 KTFX 172328
TAFHVR
TAF
KHVR 172328Z 1800/1824 31010KT P6SM FEW120
     FM180300 VRB05KT P6SM FEW090
     FM181900 25013KT P6SM SKC=

USA.gov is the U.S. government's official web portal to all federal, state and local government web resources and services.